Time;durP1;ratioP1;P1;durP2;ratioP2;P2;SDS_P1;SDS_P2;PMS_P1;PMS_P2;Temp;Humidity;BMP_temperature;BMP_pressure;BME280_temperature;BME280_humidity;BME280_pressure;Samples;Min_cycle;Max_cycle;Signal;HPM_P1;HPM_P2
2022/04/24 00:02:24;;;;;;;;;;;15.60;39.40;;;;;;4941419;29;19919;-88
2022/04/24 00:04:50;;;;;;;;;;;15.60;39.50;;;;;;4958531;28;20334;-87
2022/04/24 00:07:15;;;;;;;;;;;15.60;39.50;;;;;;4941976;29;19919;-87
2022/04/24 00:09:41;;;;;;;;;;;15.50;39.70;;;;;;4941364;29;19914;-88
2022/04/24 00:12:07;;;;;;;;;;;15.50;39.70;;;;;;4941943;29;20291;-88
2022/04/24 00:14:33;;;;;;;;;;;15.40;39.70;;;;;;4941620;29;19950;-89
2022/04/24 00:17:02;;;;;;;;;;;15.40;39.70;;;;;;4941353;29;19927;-88
2022/04/24 00:19:28;;;;;;;;;;;15.30;39.90;;;;;;4941129;29;19921;-88
2022/04/24 00:21:55;;;;;;;;;;;15.30;39.90;;;;;;4940908;29;19918;-87
2022/04/24 00:24:24;;;;;;;;;;;15.20;40.10;;;;;;4940342;29;19914;-87
2022/04/24 00:26:50;;;;;;;;;;;15.20;40.20;;;;;;4940056;29;19918;-87
2022/04/24 00:29:15;;;;;;;;;;;15.10;40.30;;;;;;4940601;29;20338;-86
2022/04/24 00:31:41;;;;;;;;;;;15.10;40.30;;;;;;4957274;29;19915;-88
2022/04/24 00:34:07;;;;;;;;;;;15.00;40.50;;;;;;4939902;29;19938;-88
2022/04/24 00:36:32;;;;;;;;;;;15.00;40.70;;;;;;4940075;29;20359;-87
2022/04/24 00:38:58;;;;;;;;;;;14.90;40.90;;;;;;4957326;28;19925;-87
2022/04/24 00:41:23;;;;;;;;;;;14.90;41.00;;;;;;4940120;29;19915;-89
2022/04/24 00:43:53;;;;;;;;;;;14.80;41.10;;;;;;4957405;29;19914;-89
2022/04/24 00:46:38;;;;;;;;;;;14.80;41.10;;;;;;4940311;29;19919;-88
2022/04/24 00:49:04;;;;;;;;;;;14.70;41.40;;;;;;4940109;29;19910;-87
2022/04/24 00:51:30;;;;;;;;;;;14.60;41.70;;;;;;4940171;29;19925;-87
2022/04/24 00:53:55;;;;;;;;;;;14.60;42.00;;;;;;4957705;29;19911;-88
2022/04/24 00:56:22;;;;;;;;;;;14.60;41.90;;;;;;4958054;29;19919;-87
2022/04/24 00:58:48;;;;;;;;;;;14.50;41.90;;;;;;4957400;29;19926;-87
2022/04/24 01:01:13;;;;;;;;;;;14.50;42.00;;;;;;4940362;29;19918;-88
2022/04/24 01:03:39;;;;;;;;;;;14.50;42.40;;;;;;4940447;29;19918;-87
2022/04/24 01:06:04;;;;;;;;;;;14.40;42.60;;;;;;4958025;29;19943;-88
2022/04/24 01:08:30;;;;;;;;;;;14.50;42.80;;;;;;4940083;29;19921;-87
2022/04/24 01:10:56;;;;;;;;;;;14.40;42.90;;;;;;4939273;29;20295;-88
2022/04/24 01:13:21;;;;;;;;;;;14.40;42.90;;;;;;4957988;28;20282;-88
2022/04/24 01:15:46;;;;;;;;;;;14.40;42.90;;;;;;4939736;28;20385;-87
2022/04/24 01:21:16;;;;;;;;;;;14.40;43.00;;;;;;4960227;29;19937;-89
2022/04/24 01:23:41;;;;;;;;;;;14.30;43.10;;;;;;4942617;29;19914;-88
2022/04/24 01:26:06;;;;;;;;;;;14.30;43.00;;;;;;4943151;29;19953;-88
2022/04/24 01:28:32;;;;;;;;;;;14.40;43.00;;;;;;4943473;29;20272;-88
2022/04/24 01:30:59;;;;;;;;;;;14.30;42.90;;;;;;4959815;29;20303;-88
2022/04/24 01:33:26;;;;;;;;;;;14.30;43.00;;;;;;4959944;28;20435;-87
2022/04/24 01:35:51;;;;;;;;;;;14.30;42.90;;;;;;4959596;29;20005;-87
2022/04/24 01:38:17;;;;;;;;;;;14.30;43.00;;;;;;4959627;29;19946;-88
2022/04/24 01:40:42;;;;;;;;;;;14.20;43.00;;;;;;4959445;29;19927;-87
2022/04/24 01:43:08;;;;;;;;;;;14.20;43.10;;;;;;4959244;29;19938;-88
2022/04/24 01:45:33;;;;;;;;;;;14.10;43.10;;;;;;4941851;29;19921;-87
2022/04/24 01:47:58;;;;;;;;;;;14.00;43.10;;;;;;4941424;29;19914;-86
2022/04/24 01:50:24;;;;;;;;;;;14.00;43.10;;;;;;4941100;29;20066;-88
2022/04/24 01:52:50;;;;;;;;;;;13.90;43.10;;;;;;4959043;28;20062;-86
2022/04/24 01:55:15;;;;;;;;;;;13.90;43.30;;;;;;4941899;29;20391;-87
2022/04/24 01:57:41;;;;;;;;;;;13.80;43.60;;;;;;4941882;29;19927;-87
2022/04/24 02:00:06;;;;;;;;;;;13.90;43.70;;;;;;4942090;29;20248;-87
2022/04/24 02:02:32;;;;;;;;;;;13.80;43.80;;;;;;4942073;29;19919;-87
2022/04/24 02:04:57;;;;;;;;;;;13.80;43.80;;;;;;4942182;29;19927;-86
2022/04/24 02:07:23;;;;;;;;;;;13.80;43.90;;;;;;4959318;29;19922;-86
2022/04/24 02:09:49;;;;;;;;;;;13.80;43.80;;;;;;4942637;29;19910;-87
2022/04/24 02:12:14;;;;;;;;;;;13.80;43.80;;;;;;4941645;29;19918;-88
2022/04/24 02:14:39;;;;;;;;;;;13.80;43.90;;;;;;4958443;28;20021;-87
2022/04/24 02:17:05;;;;;;;;;;;13.80;44.00;;;;;;4941662;29;20303;-88
2022/04/24 02:19:31;;;;;;;;;;;13.80;44.00;;;;;;4959049;29;19917;-87
2022/04/24 02:21:56;;;;;;;;;;;13.80;44.20;;;;;;4941736;29;20373;-88
2022/04/24 02:24:21;;;;;;;;;;;13.80;44.30;;;;;;4959137;29;19911;-87
2022/04/24 02:26:47;;;;;;;;;;;13.80;44.20;;;;;;4942379;29;19941;-88
2022/04/24 02:29:12;;;;;;;;;;;13.80;44.20;;;;;;4941973;29;20026;-86
2022/04/24 02:31:38;;;;;;;;;;;13.80;44.40;;;;;;4959258;29;19923;-88
2022/04/24 02:34:03;;;;;;;;;;;13.80;44.30;;;;;;4958530;29;19942;-87
2022/04/24 02:36:29;;;;;;;;;;;13.80;44.20;;;;;;4958874;29;19926;-88
2022/04/24 02:38:54;;;;;;;;;;;13.70;44.20;;;;;;4941465;29;19930;-88
2022/04/24 02:41:20;;;;;;;;;;;13.70;44.10;;;;;;4958614;29;19918;-86
2022/04/24 02:43:45;;;;;;;;;;;13.70;44.10;;;;;;4958278;28;19922;-87
2022/04/24 02:46:11;;;;;;;;;;;13.60;44.00;;;;;;4941499;29;19922;-89
2022/04/24 02:48:37;;;;;;;;;;;13.50;44.00;;;;;;4940725;29;20425;-89
2022/04/24 02:51:03;;;;;;;;;;;13.50;43.80;;;;;;4957619;29;19921;-88
2022/04/24 02:53:29;;;;;;;;;;;13.40;43.70;;;;;;4940808;29;19919;-88
2022/04/24 02:55:54;;;;;;;;;;;13.30;43.60;;;;;;4941039;29;19918;-88
2022/04/24 02:58:21;;;;;;;;;;;13.30;43.60;;;;;;4949961;28;20013;-89
2022/04/24 03:00:50;;;;;;;;;;;13.20;43.90;;;;;;4977844;28;20026;-87
2022/04/24 03:03:18;;;;;;;;;;;13.20;44.20;;;;;;4960060;28;20004;-87
2022/04/24 03:05:45;;;;;;;;;;;13.10;44.40;;;;;;4978186;28;19910;-88
2022/04/24 03:08:10;;;;;;;;;;;13.00;44.40;;;;;;4961083;28;19965;-87
2022/04/24 03:10:36;;;;;;;;;;;13.00;44.40;;;;;;4960986;28;20302;-87
2022/04/24 03:13:01;;;;;;;;;;;12.90;44.60;;;;;;4960779;28;19972;-87
2022/04/24 03:15:27;;;;;;;;;;;12.80;44.80;;;;;;4977919;28;20434;-88
2022/04/24 03:17:54;;;;;;;;;;;12.80;44.80;;;;;;4942403;29;19932;-88
2022/04/24 03:20:20;;;;;;;;;;;12.80;45.00;;;;;;4941527;29;19918;-87
2022/04/24 03:22:46;;;;;;;;;;;12.80;45.40;;;;;;4940900;29;19923;-88
2022/04/24 03:25:11;;;;;;;;;;;12.80;45.70;;;;;;4940528;29;20279;-88
2022/04/24 03:27:37;;;;;;;;;;;12.80;45.80;;;;;;4940232;29;20387;-87
2022/04/24 03:30:03;;;;;;;;;;;12.80;46.00;;;;;;4941069;29;19915;-87
2022/04/24 03:32:30;;;;;;;;;;;12.80;46.00;;;;;;4940053;29;19936;-87
2022/04/24 03:34:55;;;;;;;;;;;12.80;46.00;;;;;;4958782;29;20374;-88
2022/04/24 03:37:21;;;;;;;;;;;12.80;45.90;;;;;;4940707;29;19957;-87
2022/04/24 03:39:46;;;;;;;;;;;12.80;46.00;;;;;;4940298;29;19915;-87
2022/04/24 03:42:12;;;;;;;;;;;12.80;46.10;;;;;;4958034;29;19915;-88
2022/04/24 03:44:37;;;;;;;;;;;12.70;46.00;;;;;;4940926;29;19923;-87
2022/04/24 03:47:03;;;;;;;;;;;12.70;46.00;;;;;;4958498;29;19929;-88
2022/04/24 03:49:29;;;;;;;;;;;12.70;46.10;;;;;;4941356;29;19915;-88
2022/04/24 03:51:54;;;;;;;;;;;12.70;46.10;;;;;;4940580;29;19921;-89
2022/04/24 03:54:20;;;;;;;;;;;12.60;46.10;;;;;;4957273;29;20286;-90
2022/04/24 03:56:46;;;;;;;;;;;12.60;46.10;;;;;;4957060;29;19923;-87
2022/04/24 03:59:12;;;;;;;;;;;12.50;46.10;;;;;;4957551;29;19914;-88
2022/04/24 04:01:37;;;;;;;;;;;12.50;46.10;;;;;;4957528;29;19976;-87
2022/04/24 04:04:03;;;;;;;;;;;12.40;46.00;;;;;;4957289;29;19914;-87
2022/04/24 04:06:29;;;;;;;;;;;12.40;46.10;;;;;;4957706;29;19914;-87
2022/04/24 04:08:54;;;;;;;;;;;12.30;46.10;;;;;;4940192;29;19918;-87
2022/04/24 04:11:20;;;;;;;;;;;12.30;46.40;;;;;;4940360;29;19917;-87
2022/04/24 04:13:45;;;;;;;;;;;12.20;46.60;;;;;;4940530;29;19925;-87
2022/04/24 04:16:11;;;;;;;;;;;12.30;46.80;;;;;;4958052;29;19910;-87
2022/04/24 04:18:36;;;;;;;;;;;12.20;47.00;;;;;;4940942;29;20379;-88
2022/04/24 04:21:02;;;;;;;;;;;12.10;47.10;;;;;;4941298;29;19949;-88
2022/04/24 04:23:27;;;;;;;;;;;12.10;47.40;;;;;;4939342;29;19926;-88
2022/04/24 04:25:53;;;;;;;;;;;12.20;47.50;;;;;;4940289;29;19910;-88
2022/04/24 04:28:18;;;;;;;;;;;12.20;47.50;;;;;;4956772;29;20488;-89
2022/04/24 04:30:44;;;;;;;;;;;12.20;47.60;;;;;;4956759;29;20426;-88
2022/04/24 04:33:09;;;;;;;;;;;12.30;47.70;;;;;;4939848;29;19925;-86
2022/04/24 04:35:35;;;;;;;;;;;12.40;47.70;;;;;;4939523;29;19910;-88
2022/04/24 04:38:01;;;;;;;;;;;12.50;47.60;;;;;;4939746;29;19974;-87
2022/04/24 04:40:26;;;;;;;;;;;12.70;47.50;;;;;;4957282;29;19962;-88
2022/04/24 04:42:52;;;;;;;;;;;12.80;47.30;;;;;;4939891;29;19922;-91
2022/04/24 04:45:17;;;;;;;;;;;13.00;47.10;;;;;;4939884;29;19923;-87
2022/04/24 04:47:43;;;;;;;;;;;13.20;46.80;;;;;;4956597;29;19922;-87
2022/04/24 04:50:09;;;;;;;;;;;13.40;46.60;;;;;;4939713;29;19922;-87
2022/04/24 04:52:35;;;;;;;;;;;13.60;46.10;;;;;;4938307;29;20367;-88
2022/04/24 04:55:01;;;;;;;;;;;13.80;45.90;;;;;;4939806;29;19914;-88
2022/04/24 04:57:26;;;;;;;;;;;14.10;45.40;;;;;;4956919;29;19941;-87
2022/04/24 04:59:52;;;;;;;;;;;14.30;45.00;;;;;;4956626;29;19914;-87
2022/04/24 05:02:17;;;;;;;;;;;14.60;44.60;;;;;;4957089;29;20466;-87
2022/04/24 05:04:43;;;;;;;;;;;14.80;44.00;;;;;;4957030;29;20386;-87
2022/04/24 05:07:12;;;;;;;;;;;15.10;43.50;;;;;;4940451;29;20311;-89
2022/04/24 05:09:37;;;;;;;;;;;15.30;42.90;;;;;;4957650;29;19972;-88
2022/04/24 05:12:04;;;;;;;;;;;15.50;42.00;;;;;;4945130;29;19911;-87
2022/04/24 05:14:29;;;;;;;;;;;15.80;41.90;;;;;;4940586;29;19923;-88
2022/04/24 05:16:58;;;;;;;;;;;16.00;41.60;;;;;;4956710;29;19910;-88
2022/04/24 05:19:24;;;;;;;;;;;16.30;41.20;;;;;;4958236;29;19942;-88
2022/04/24 05:21:49;;;;;;;;;;;16.50;40.60;;;;;;4939659;29;20381;-88
2022/04/24 05:24:15;;;;;;;;;;;16.80;40.00;;;;;;4957783;29;20017;-88
2022/04/24 05:26:40;;;;;;;;;;;17.00;39.30;;;;;;4939706;29;19910;-89
2022/04/24 05:29:06;;;;;;;;;;;17.30;39.10;;;;;;4939584;29;19918;-88
2022/04/24 05:31:31;;;;;;;;;;;17.50;38.60;;;;;;4939242;29;19911;-88
2022/04/24 05:33:57;;;;;;;;;;;17.80;37.90;;;;;;4962591;28;19950;-88
2022/04/24 05:36:22;;;;;;;;;;;18.00;37.60;;;;;;4972450;28;19915;-87
2022/04/24 05:38:48;;;;;;;;;;;18.30;37.50;;;;;;4963856;28;19933;-89
2022/04/24 05:41:14;;;;;;;;;;;18.50;36.90;;;;;;4962909;28;19974;-88
2022/04/24 05:43:39;;;;;;;;;;;18.80;36.20;;;;;;4956307;28;19922;-89
2022/04/24 05:46:05;;;;;;;;;;;19.00;35.70;;;;;;4958124;28;20543;-89
2022/04/24 05:48:31;;;;;;;;;;;19.30;35.70;;;;;;4957593;28;19969;-89
2022/04/24 05:50:57;;;;;;;;;;;19.60;34.10;;;;;;4969231;28;19922;-89
2022/04/24 05:53:22;;;;;;;;;;;19.80;34.00;;;;;;4952023;28;19918;-89
2022/04/24 05:55:48;;;;;;;;;;;19.90;33.90;;;;;;4940039;29;19918;-89
2022/04/24 05:58:13;;;;;;;;;;;20.20;33.00;;;;;;4939200;29;20402;-88
2022/04/24 06:00:39;;;;;;;;;;;20.30;32.70;;;;;;4956415;29;19921;-89
2022/04/24 06:03:04;;;;;;;;;;;20.40;32.60;;;;;;4964753;28;19968;-89
2022/04/24 06:05:30;;;;;;;;;;;20.60;32.30;;;;;;4997965;28;19914;-89
2022/04/24 06:07:56;;;;;;;;;;;20.80;32.30;;;;;;4986429;28;19918;-88
2022/04/24 06:10:22;;;;;;;;;;;21.20;32.50;;;;;;4961020;28;19914;-89
2022/04/24 06:12:47;;;;;;;;;;;21.50;31.80;;;;;;4961625;28;19922;-88
2022/04/24 06:15:15;;;;;;;;;;;21.70;30.70;;;;;;4977476;28;20015;-88
2022/04/24 06:17:57;;;;;;;;;;;21.80;30.30;;;;;;4977580;28;20061;-87
2022/04/24 06:20:39;;;;;;;;;;;22.00;30.60;;;;;;4945014;29;19919;-88
2022/04/24 06:23:05;;;;;;;;;;;22.30;30.40;;;;;;4977322;28;19941;-89
2022/04/24 06:25:33;;;;;;;;;;;22.60;29.80;;;;;;4960862;28;19918;-89
2022/04/24 06:28:00;;;;;;;;;;;22.80;29.40;;;;;;4963372;28;19957;-89
2022/04/24 06:30:27;;;;;;;;;;;23.00;28.80;;;;;;4960648;28;20549;-89
2022/04/24 06:32:52;;;;;;;;;;;23.00;27.90;;;;;;4960883;28;20704;-89
2022/04/24 06:35:18;;;;;;;;;;;23.00;27.80;;;;;;4977680;28;19914;-88
2022/04/24 06:37:46;;;;;;;;;;;23.00;27.90;;;;;;4960328;28;19971;-88
2022/04/24 06:40:31;;;;;;;;;;;23.00;27.80;;;;;;4959079;28;19914;-90
2022/04/24 06:43:05;;;;;;;;;;;23.00;27.90;;;;;;4941211;29;20060;-89
2022/04/24 06:45:56;;;;;;;;;;;23.10;28.00;;;;;;4941879;29;19949;-88
2022/04/24 06:48:22;;;;;;;;;;;23.10;27.70;;;;;;4956814;29;20391;-89
2022/04/24 06:50:47;;;;;;;;;;;23.10;27.90;;;;;;4963831;28;19993;-89
2022/04/24 06:53:18;;;;;;;;;;;23.30;27.50;;;;;;4979226;28;20002;-90
2022/04/24 06:55:45;;;;;;;;;;;23.30;27.30;;;;;;4979467;28;20322;-89
2022/04/24 06:58:12;;;;;;;;;;;23.40;27.00;;;;;;4963088;28;19965;-88
2022/04/24 07:03:47;;;;;;;;;;;23.40;27.50;;;;;;4944130;29;19970;-89
2022/04/24 07:06:15;;;;;;;;;;;23.60;27.30;;;;;;4976999;28;19924;-89
2022/04/24 07:08:41;;;;;;;;;;;23.70;26.90;;;;;;4981955;28;19921;-88
2022/04/24 07:11:06;;;;;;;;;;;23.80;26.80;;;;;;4982154;28;20333;-90
2022/04/24 07:13:32;;;;;;;;;;;23.80;26.80;;;;;;4985728;28;19937;-90
2022/04/24 07:15:57;;;;;;;;;;;24.00;26.60;;;;;;4962127;28;20387;-90
2022/04/24 07:18:23;;;;;;;;;;;24.00;26.50;;;;;;4978538;28;19986;-87
2022/04/24 07:20:48;;;;;;;;;;;24.10;26.60;;;;;;4982145;28;19932;-88
2022/04/24 07:23:15;;;;;;;;;;;24.40;26.60;;;;;;4979409;28;20014;-89
2022/04/24 07:26:01;;;;;;;;;;;24.60;26.10;;;;;;4981380;28;20001;-89
2022/04/24 07:28:36;;;;;;;;;;;24.70;25.80;;;;;;4986354;28;20014;-91
2022/04/24 07:31:01;;;;;;;;;;;24.70;26.00;;;;;;4961721;28;19914;-89
2022/04/24 07:33:27;;;;;;;;;;;24.90;25.90;;;;;;4991362;28;19925;-89
2022/04/24 07:35:52;;;;;;;;;;;25.00;25.60;;;;;;4981632;28;19918;-89
2022/04/24 07:38:20;;;;;;;;;;;25.20;25.50;;;;;;4986876;28;19929;-90
2022/04/24 07:40:45;;;;;;;;;;;25.30;25.60;;;;;;4961321;28;19945;-88
2022/04/24 07:43:11;;;;;;;;;;;25.50;25.60;;;;;;4971011;28;19917;-88
2022/04/24 07:45:40;;;;;;;;;;;25.80;25.30;;;;;;4979496;28;19929;-89
2022/04/24 07:48:07;;;;;;;;;;;26.00;24.80;;;;;;4986937;28;20343;-88
2022/04/24 07:50:34;;;;;;;;;;;26.20;24.80;;;;;;4980499;28;20005;-89
2022/04/24 07:53:00;;;;;;;;;;;26.40;24.70;;;;;;4995626;28;19925;-88
2022/04/24 07:55:26;;;;;;;;;;;26.40;24.10;;;;;;4998548;28;19914;-91
2022/04/24 07:57:53;;;;;;;;;;;26.50;24.10;;;;;;4995008;28;19932;-88
2022/04/24 08:00:21;;;;;;;;;;;26.40;23.90;;;;;;4997078;28;20004;-90
2022/04/24 08:02:46;;;;;;;;;;;26.30;24.10;;;;;;4990556;28;20400;-90
2022/04/24 08:05:17;;;;;;;;;;;26.20;24.10;;;;;;4961865;28;19914;-89
2022/04/24 08:07:43;;;;;;;;;;;26.20;24.30;;;;;;4987790;28;19922;-90
2022/04/24 08:10:08;;;;;;;;;;;26.20;24.30;;;;;;4961918;28;20014;-89
2022/04/24 08:12:34;;;;;;;;;;;26.20;24.00;;;;;;4961557;28;19918;-90
2022/04/24 08:14:59;;;;;;;;;;;26.10;24.20;;;;;;4961514;28;19922;-90
2022/04/24 08:17:25;;;;;;;;;;;26.20;24.40;;;;;;4981637;28;19933;-88
2022/04/24 08:19:50;;;;;;;;;;;26.30;24.30;;;;;;4987641;28;19914;-90
2022/04/24 08:22:16;;;;;;;;;;;26.40;24.20;;;;;;4980626;28;19965;-88
2022/04/24 08:24:41;;;;;;;;;;;26.40;23.90;;;;;;4997173;28;19920;-88
2022/04/24 08:27:06;;;;;;;;;;;26.30;23.80;;;;;;4993996;28;19984;-88
2022/04/24 08:29:32;;;;;;;;;;;26.10;23.90;;;;;;4980697;28;19975;-88
2022/04/24 08:31:57;;;;;;;;;;;26.00;24.20;;;;;;4996458;28;19945;-89
2022/04/24 08:34:23;;;;;;;;;;;26.00;24.30;;;;;;4961274;28;19914;-90
2022/04/24 08:36:50;;;;;;;;;;;26.00;24.20;;;;;;4961748;28;20298;-89
2022/04/24 08:39:15;;;;;;;;;;;26.00;24.20;;;;;;4960912;28;19926;-89
2022/04/24 08:41:41;;;;;;;;;;;26.00;24.30;;;;;;4961101;28;20416;-89
2022/04/24 08:44:07;;;;;;;;;;;26.10;24.30;;;;;;4977144;28;19964;-88
2022/04/24 08:46:32;;;;;;;;;;;26.00;24.10;;;;;;4977301;28;19938;-88
2022/04/24 08:48:58;;;;;;;;;;;26.00;24.60;;;;;;4960271;28;20294;-89
2022/04/24 08:51:24;;;;;;;;;;;26.20;24.30;;;;;;4977260;28;19910;-88
2022/04/24 08:53:50;;;;;;;;;;;26.30;24.40;;;;;;4958844;28;20382;-88
2022/04/24 08:56:16;;;;;;;;;;;26.50;24.00;;;;;;4960096;28;20018;-88
2022/04/24 08:58:42;;;;;;;;;;;26.60;24.10;;;;;;4959286;28;20387;-89
2022/04/24 09:01:08;;;;;;;;;;;26.60;23.70;;;;;;4959246;28;19914;-87
2022/04/24 09:03:42;;;;;;;;;;;26.60;23.80;;;;;;4971276;28;19956;-89
2022/04/24 09:06:18;;;;;;;;;;;26.80;23.70;;;;;;4992489;28;20302;-90
2022/04/24 09:08:43;;;;;;;;;;;26.80;23.70;;;;;;4987349;28;19910;-89
2022/04/24 09:11:09;;;;;;;;;;;26.90;23.30;;;;;;4966189;28;20374;-89
2022/04/24 09:16:24;;;;;;;;;;;27.10;23.30;;;;;;4969612;28;19920;-88
2022/04/24 09:18:50;;;;;;;;;;;27.20;23.40;;;;;;4964610;28;19994;-88
2022/04/24 09:21:15;;;;;;;;;;;27.30;23.20;;;;;;4957122;28;19914;-88
2022/04/24 09:23:42;;;;;;;;;;;27.40;22.90;;;;;;4961817;28;19918;-88
2022/04/24 09:26:16;;;;;;;;;;;27.50;22.90;;;;;;4960871;28;20022;-88
2022/04/24 09:28:42;;;;;;;;;;;27.60;22.70;;;;;;4956482;28;20476;-88
2022/04/24 09:31:08;;;;;;;;;;;27.50;22.90;;;;;;4957711;28;19914;-87
2022/04/24 09:33:38;;;;;;;;;;;27.50;22.80;;;;;;4968833;28;19922;-88
2022/04/24 09:36:03;;;;;;;;;;;27.50;22.70;;;;;;4964580;28;20004;-88
2022/04/24 09:38:29;;;;;;;;;;;27.50;23.00;;;;;;4958294;28;19969;-89
2022/04/24 09:40:54;;;;;;;;;;;27.50;22.70;;;;;;4971627;28;20404;-88
2022/04/24 09:43:20;;;;;;;;;;;27.50;22.80;;;;;;4972498;28;20302;-88
2022/04/24 09:45:49;;;;;;;;;;;27.60;22.40;;;;;;4968923;28;19918;-89
2022/04/24 09:48:19;;;;;;;;;;;27.60;22.50;;;;;;4953199;28;19918;-87
2022/04/24 09:50:45;;;;;;;;;;;27.70;22.80;;;;;;4960260;28;19918;-87
2022/04/24 09:53:12;;;;;;;;;;;27.80;22.70;;;;;;4970913;28;20290;-87
2022/04/24 09:55:40;;;;;;;;;;;27.80;22.70;;;;;;4970862;28;19993;-86
2022/04/24 09:58:06;;;;;;;;;;;28.00;22.50;;;;;;4973217;28;20060;-86
2022/04/24 10:00:32;;;;;;;;;;;28.20;22.60;;;;;;4976567;28;19917;-87
2022/04/24 10:02:58;;;;;;;;;;;28.40;22.30;;;;;;4959305;28;19999;-87
2022/04/24 10:05:28;;;;;;;;;;;28.50;22.10;;;;;;4959735;28;19945;-87
2022/04/24 10:07:53;;;;;;;;;;;28.80;22.20;;;;;;4964275;28;19922;-86
2022/04/24 10:10:19;;;;;;;;;;;28.90;21.60;;;;;;4949081;28;20314;-86
2022/04/24 10:12:50;;;;;;;;;;;29.00;21.80;;;;;;4968503;28;19918;-89
2022/04/24 10:15:16;;;;;;;;;;;29.10;21.60;;;;;;4960275;28;19910;-89
2022/04/24 10:17:54;;;;;;;;;;;29.30;21.50;;;;;;4962998;28;19934;-89
2022/04/24 10:20:38;;;;;;;;;;;29.30;21.10;;;;;;4977905;28;20013;-90
2022/04/24 10:23:03;;;;;;;;;;;29.30;21.20;;;;;;4966836;28;19920;-90
2022/04/24 10:25:37;;;;;;;;;;;29.10;21.20;;;;;;4963169;28;20319;-91
2022/04/24 10:28:09;;;;;;;;;;;29.00;21.30;;;;;;4955090;28;19914;-88
2022/04/24 10:30:35;;;;;;;;;;;29.00;21.70;;;;;;4956494;28;19915;-89
2022/04/24 10:33:19;;;;;;;;;;;29.00;21.50;;;;;;4956593;28;19926;-89
2022/04/24 10:35:47;;;;;;;;;;;29.10;21.60;;;;;;4964752;28;20358;-89
2022/04/24 10:38:13;;;;;;;;;;;29.20;21.70;;;;;;4962115;28;20297;-89
2022/04/24 10:40:39;;;;;;;;;;;29.30;21.40;;;;;;4978003;28;19914;-89
2022/04/24 10:43:07;;;;;;;;;;;29.20;21.10;;;;;;4955952;28;19918;-89
2022/04/24 10:45:43;;;;;;;;;;;29.10;21.30;;;;;;4962411;28;19910;-89
2022/04/24 10:48:13;;;;;;;;;;;29.20;21.30;;;;;;4962314;28;19958;-88
2022/04/24 10:50:44;;;;;;;;;;;29.30;21.20;;;;;;4967770;28;19987;-89
2022/04/24 10:53:11;;;;;;;;;;;29.30;21.30;;;;;;4961370;28;19965;-89
2022/04/24 10:55:36;;;;;;;;;;;29.40;21.10;;;;;;4962403;28;20334;-90
2022/04/24 10:58:03;;;;;;;;;;;29.50;21.20;;;;;;4962250;28;19926;-90
2022/04/24 11:00:34;;;;;;;;;;;29.50;21.00;;;;;;4961783;28;19921;-89
2022/04/24 11:03:14;;;;;;;;;;;29.50;21.20;;;;;;4961425;28;19914;-89
2022/04/24 11:05:41;;;;;;;;;;;29.50;21.10;;;;;;4979636;28;20259;-89
2022/04/24 11:08:07;;;;;;;;;;;29.60;20.60;;;;;;4961014;28;19957;-88
2022/04/24 11:10:46;;;;;;;;;;;29.60;20.50;;;;;;4959544;28;19921;-87
2022/04/24 11:13:16;;;;;;;;;;;29.70;20.80;;;;;;4959175;28;19955;-90
2022/04/24 11:15:47;;;;;;;;;;;29.90;20.90;;;;;;4929685;28;20363;-88
2022/04/24 11:18:19;;;;;;;;;;;30.00;20.50;;;;;;4955491;28;19934;-87
2022/04/24 11:20:55;;;;;;;;;;;29.80;20.60;;;;;;4953451;28;19918;-89
2022/04/24 11:23:24;;;;;;;;;;;29.70;20.60;;;;;;4954902;28;19918;-87
2022/04/24 11:25:52;;;;;;;;;;;29.60;20.90;;;;;;4960569;28;19918;-87
2022/04/24 11:28:17;;;;;;;;;;;29.70;21.10;;;;;;4965071;28;19954;-88
2022/04/24 11:30:43;;;;;;;;;;;29.90;21.20;;;;;;4967272;28;19925;-88
2022/04/24 11:33:08;;;;;;;;;;;30.10;20.90;;;;;;4970988;28;19922;-89
2022/04/24 11:35:39;;;;;;;;;;;30.30;21.00;;;;;;4974081;28;19956;-89
2022/04/24 11:38:06;;;;;;;;;;;30.50;20.80;;;;;;4962044;28;20026;-92
2022/04/24 11:40:38;;;;;;;;;;;30.50;20.60;;;;;;4952727;29;19918;-90
2022/04/24 11:43:06;;;;;;;;;;;30.70;20.80;;;;;;4962268;28;19914;-89
2022/04/24 11:51:14;;;;;;;;;;;29.90;20.30;;;;;;4972271;28;20393;-89
2022/04/24 11:53:40;;;;;;;;;;;29.90;20.70;;;;;;4946029;28;19918;-88
2022/04/24 11:56:08;;;;;;;;;;;30.20;20.60;;;;;;4978112;28;20018;-88
2022/04/24 11:58:35;;;;;;;;;;;30.20;20.10;;;;;;4961221;28;19932;-88
2022/04/24 12:01:05;;;;;;;;;;;30.30;19.90;;;;;;4960929;28;19957;-89
2022/04/24 12:03:32;;;;;;;;;;;30.60;20.10;;;;;;4926112;29;19929;-89
2022/04/24 12:05:58;;;;;;;;;;;30.40;20.10;;;;;;4959967;28;19926;-89
2022/04/24 12:08:27;;;;;;;;;;;30.30;20.00;;;;;;4962497;28;19914;-89
2022/04/24 12:10:53;;;;;;;;;;;30.40;20.30;;;;;;4962397;28;20315;-89
2022/04/24 12:13:22;;;;;;;;;;;30.50;20.30;;;;;;4960328;28;19925;-88
2022/04/24 12:15:49;;;;;;;;;;;30.80;20.00;;;;;;4961656;28;20005;-90
2022/04/24 12:18:19;;;;;;;;;;;30.80;19.70;;;;;;4973617;28;19949;-89
2022/04/24 12:20:45;;;;;;;;;;;30.60;19.60;;;;;;4961088;28;20295;-89
2022/04/24 12:23:11;;;;;;;;;;;30.20;20.10;;;;;;4978564;28;19920;-88
2022/04/24 12:25:53;;;;;;;;;;;29.90;20.40;;;;;;4945361;28;19924;-89
2022/04/24 12:28:41;;;;;;;;;;;30.20;20.40;;;;;;4955073;28;19949;-91
2022/04/24 12:31:19;;;;;;;;;;;30.30;19.60;;;;;;4939599;28;19918;-90
2022/04/24 12:33:45;;;;;;;;;;;30.70;19.50;;;;;;4980795;28;19918;-89
2022/04/24 12:36:13;;;;;;;;;;;31.00;19.50;;;;;;4946338;28;19918;-89
2022/04/24 12:38:39;;;;;;;;;;;31.30;19.30;;;;;;4961920;28;19926;-89
2022/04/24 12:41:09;;;;;;;;;;;31.10;19.60;;;;;;4960272;28;19918;-91
2022/04/24 12:43:35;;;;;;;;;;;31.30;19.40;;;;;;4978894;28;20282;-91
2022/04/24 12:46:01;;;;;;;;;;;31.30;18.60;;;;;;4966529;28;19919;-91
2022/04/24 12:48:27;;;;;;;;;;;31.00;18.80;;;;;;4960848;28;20319;-90
2022/04/24 12:50:53;;;;;;;;;;;30.20;18.90;;;;;;4963652;28;19918;-90
2022/04/24 12:53:51;;;;;;;;;;;29.40;19.80;;;;;;4961294;28;20335;-91
2022/04/24 12:56:24;;;;;;;;;;;28.90;20.20;;;;;;4978705;28;19924;-90
2022/04/24 12:58:50;;;;;;;;;;;28.60;20.70;;;;;;4964198;28;19989;-90
2022/04/24 13:01:16;;;;;;;;;;;28.80;20.50;;;;;;4960235;28;19969;-90
2022/04/24 13:03:42;;;;;;;;;;;28.60;20.70;;;;;;4961957;28;20001;-92
2022/04/24 13:06:09;;;;;;;;;;;28.10;21.10;;;;;;4959037;28;20366;-89
2022/04/24 13:08:36;;;;;;;;;;;27.80;21.60;;;;;;4972760;28;20359;-90
2022/04/24 13:11:02;;;;;;;;;;;28.10;21.70;;;;;;4954883;28;19918;-89
2022/04/24 13:13:28;;;;;;;;;;;27.90;21.90;;;;;;4974823;28;20004;-89
2022/04/24 13:18:38;;;;;;;;;;;27.60;22.30;;;;;;4974092;28;19928;-88
2022/04/24 13:21:04;;;;;;;;;;;27.70;21.40;;;;;;4946926;28;19918;-89
2022/04/24 13:23:30;;;;;;;;;;;27.80;21.50;;;;;;4973322;28;19918;-90
2022/04/24 13:25:56;;;;;;;;;;;27.60;21.80;;;;;;4962077;28;20250;-89
2022/04/24 13:28:23;;;;;;;;;;;27.10;22.20;;;;;;4973478;28;19922;-90
2022/04/24 13:30:51;;;;;;;;;;;26.90;22.70;;;;;;4961318;28;19925;-88
2022/04/24 13:33:19;;;;;;;;;;;26.90;22.90;;;;;;4978234;28;19914;-90
2022/04/24 13:35:45;;;;;;;;;;;26.90;22.80;;;;;;4972211;28;19930;-89
2022/04/24 13:38:19;;;;;;;;;;;26.60;23.00;;;;;;4958126;28;19918;-88
2022/04/24 13:40:46;;;;;;;;;;;26.30;23.20;;;;;;4966304;28;19923;-90
2022/04/24 13:43:12;;;;;;;;;;;25.90;23.70;;;;;;4949246;28;20375;-90
2022/04/24 13:45:38;;;;;;;;;;;25.70;24.20;;;;;;4947394;28;20020;-90
2022/04/24 13:48:03;;;;;;;;;;;25.60;24.50;;;;;;4960360;28;20322;-89
2022/04/24 13:50:30;;;;;;;;;;;25.40;24.60;;;;;;4958368;28;19933;-88
2022/04/24 13:52:57;;;;;;;;;;;25.30;24.80;;;;;;4960255;28;19915;-88
2022/04/24 13:55:23;;;;;;;;;;;25.10;24.90;;;;;;4960172;28;20286;-91
2022/04/24 13:57:48;;;;;;;;;;;24.90;25.40;;;;;;4959156;28;19930;-90
2022/04/24 14:00:14;;;;;;;;;;;24.80;25.60;;;;;;4966599;28;19914;-90
2022/04/24 14:02:40;;;;;;;;;;;24.70;25.60;;;;;;4975349;28;19968;-91
2022/04/24 14:05:06;;;;;;;;;;;24.50;25.80;;;;;;4971852;28;19910;-88
2022/04/24 14:07:33;;;;;;;;;;;24.50;25.90;;;;;;4957380;28;19918;-88
2022/04/24 14:09:59;;;;;;;;;;;24.30;26.00;;;;;;4971772;28;19918;-88
2022/04/24 14:12:24;;;;;;;;;;;24.20;26.20;;;;;;4959055;28;19981;-89
2022/04/24 14:14:50;;;;;;;;;;;24.10;26.30;;;;;;4956308;28;19914;-89
2022/04/24 14:17:15;;;;;;;;;;;24.00;26.40;;;;;;4960360;28;19919;-89
2022/04/24 14:19:42;;;;;;;;;;;23.80;26.70;;;;;;4954823;28;19914;-89
2022/04/24 14:22:07;;;;;;;;;;;23.80;27.20;;;;;;4949240;28;19918;-89
2022/04/24 14:24:33;;;;;;;;;;;23.80;27.10;;;;;;4962073;28;19921;-87
2022/04/24 14:27:02;;;;;;;;;;;23.70;27.20;;;;;;4961982;28;19926;-89
2022/04/24 14:29:27;;;;;;;;;;;23.70;27.20;;;;;;4947158;28;19918;-89
2022/04/24 14:31:55;;;;;;;;;;;23.60;27.30;;;;;;4950676;28;19929;-89
2022/04/24 14:34:20;;;;;;;;;;;23.40;27.30;;;;;;4960170;28;20374;-88